sensor_id;sensor_type;location;lat;lon;timestamp;pressure;altitude;pressure_sealevel;temperature;humidity
50696;BME280;36665;51.786;21.594;2023-05-01T00:03:29;92523.27;;;1.38;53.67
50696;BME280;36665;51.786;21.594;2023-05-01T00:11:53;92498.61;;;1.32;53.38
50696;BME280;36665;51.786;21.594;2023-05-01T00:20:16;92490.15;;;1.30;53.48
50696;BME280;36665;51.786;21.594;2023-05-01T00:28:39;92476.10;;;1.27;53.49
50696;BME280;36665;51.786;21.594;2023-05-01T00:37:02;92472.19;;;1.25;53.51
50696;BME280;36665;51.786;21.594;2023-05-01T00:45:26;92457.99;;;1.22;53.50
50696;BME280;36665;51.786;21.594;2023-05-01T00:53:49;92418.47;;;1.11;53.47
50696;BME280;36665;51.786;21.594;2023-05-01T01:02:13;92383.13;;;1.00;53.31
50696;BME280;36665;51.786;21.594;2023-05-01T01:19:40;92311.84;;;0.81;53.40
50696;BME280;36665;51.786;21.594;2023-05-01T01:28:23;92280.94;;;0.72;53.33
50696;BME280;36665;51.786;21.594;2023-05-01T01:37:14;92278.09;;;0.71;53.46
50696;BME280;36665;51.786;21.594;2023-05-01T01:45:42;92245.80;;;0.64;53.40
50696;BME280;36665;51.786;21.594;2023-05-01T01:54:06;92172.10;;;0.43;53.44
50696;BME280;36665;51.786;21.594;2023-05-01T02:02:31;92122.38;;;0.28;53.21
50696;BME280;36665;51.786;21.594;2023-05-01T02:10:55;92090.60;;;0.21;53.15
50696;BME280;36665;51.786;21.594;2023-05-01T02:19:24;92064.02;;;0.13;53.24
50696;BME280;36665;51.786;21.594;2023-05-01T02:28:08;92021.63;;;0.01;53.15
50696;BME280;36665;51.786;21.594;2023-05-01T02:36:32;91994.05;;;-0.06;53.05
50696;BME280;36665;51.786;21.594;2023-05-01T02:45:01;92002.58;;;-0.04;53.14
50696;BME280;36665;51.786;21.594;2023-05-01T02:53:25;91996.63;;;-0.04;53.35
50696;BME280;36665;51.786;21.594;2023-05-01T03:01:53;91958.67;;;-0.17;53.20
50696;BME280;36665;51.786;21.594;2023-05-01T03:10:16;91912.50;;;-0.28;53.15
50696;BME280;36665;51.786;21.594;2023-05-01T03:18:39;91933.91;;;-0.23;53.31
50696;BME280;36665;51.786;21.594;2023-05-01T03:27:02;91927.75;;;-0.24;53.26
50696;BME280;36665;51.786;21.594;2023-05-01T03:35:26;91876.31;;;-0.39;53.24
50696;BME280;36665;51.786;21.594;2023-05-01T03:43:50;91868.48;;;-0.40;53.29
50696;BME280;36665;51.786;21.594;2023-05-01T03:52:34;92034.02;;;0.06;53.29
50696;BME280;36665;51.786;21.594;2023-05-01T04:00:58;92804.24;;;2.23;53.77
50696;BME280;36665;51.786;21.594;2023-05-01T04:09:22;93572.27;;;4.36;54.36
50696;BME280;36665;51.786;21.594;2023-05-01T04:17:46;94201.75;;;6.08;54.91
50696;BME280;36665;51.786;21.594;2023-05-01T04:26:10;94635.33;;;7.24;55.08
50696;BME280;36665;51.786;21.594;2023-05-01T04:34:33;94935.80;;;8.05;55.51
50696;BME280;36665;51.786;21.594;2023-05-01T04:42:56;95179.83;;;8.69;55.66
50696;BME280;36665;51.786;21.594;2023-05-01T04:51:20;95121.81;;;8.53;55.81
50696;BME280;36665;51.786;21.594;2023-05-01T04:59:43;94904.11;;;7.94;55.65
50696;BME280;36665;51.786;21.594;2023-05-01T05:08:07;94808.39;;;7.69;55.70
50696;BME280;36665;51.786;21.594;2023-05-01T05:16:51;94867.56;;;7.84;55.67
50696;BME280;36665;51.786;21.594;2023-05-01T05:25:15;94964.21;;;8.10;55.61
50696;BME280;36665;51.786;21.594;2023-05-01T05:33:38;95110.63;;;8.47;55.86
50696;BME280;36665;51.786;21.594;2023-05-01T05:42:01;95295.81;;;8.96;55.87
50696;BME280;36665;51.786;21.594;2023-05-01T05:50:25;95328.70;;;9.05;55.98
50696;BME280;36665;51.786;21.594;2023-05-01T05:58:49;95327.80;;;9.06;55.96
50696;BME280;36665;51.786;21.594;2023-05-01T06:07:12;95376.11;;;9.17;55.96
50696;BME280;36665;51.786;21.594;2023-05-01T06:15:36;95638.97;;;9.87;56.22
50696;BME280;36665;51.786;21.594;2023-05-01T06:23:59;95992.75;;;10.81;56.38
50696;BME280;36665;51.786;21.594;2023-05-01T06:32:27;96311.52;;;11.62;56.48
50696;BME280;36665;51.786;21.594;2023-05-01T06:40:50;96683.66;;;12.59;56.89
50696;BME280;36665;51.786;21.594;2023-05-01T06:49:13;97012.23;;;13.43;57.02
50696;BME280;36665;51.786;21.594;2023-05-01T06:57:36;97284.41;;;14.11;57.24
50696;BME280;36665;51.786;21.594;2023-05-01T07:05:59;97474.65;;;14.59;57.33
50696;BME280;36665;51.786;21.594;2023-05-01T07:14:22;97432.67;;;14.47;57.37
50696;BME280;36665;51.786;21.594;2023-05-01T07:22:45;97330.56;;;14.21;57.40
50696;BME280;36665;51.786;21.594;2023-05-01T07:31:09;97229.50;;;13.94;57.17
50696;BME280;36665;51.786;21.594;2023-05-01T07:39:32;97169.95;;;13.79;57.27
50696;BME280;36665;51.786;21.594;2023-05-01T07:47:55;97035.73;;;13.43;57.17
50696;BME280;36665;51.786;21.594;2023-05-01T07:56:18;97028.15;;;13.42;57.10
50696;BME280;36665;51.786;21.594;2023-05-01T08:04:43;97236.79;;;13.95;57.24
50696;BME280;36665;51.786;21.594;2023-05-01T08:13:07;97428.29;;;14.43;57.40
50696;BME280;36665;51.786;21.594;2023-05-01T08:21:30;97558.56;;;14.75;57.30
50696;BME280;36665;51.786;21.594;2023-05-01T08:29:53;97734.92;;;15.20;57.41
50696;BME280;36665;51.786;21.594;2023-05-01T08:38:17;97999.27;;;15.86;57.55
50696;BME280;36665;51.786;21.594;2023-05-01T08:46:45;98068.80;;;16.03;57.56
50696;BME280;36665;51.786;21.594;2023-05-01T08:55:14;98109.06;;;16.13;57.77
50696;BME280;36665;51.786;21.594;2023-05-01T09:03:37;98217.39;;;16.39;57.87
50696;BME280;36665;51.786;21.594;2023-05-01T09:12:25;98281.61;;;16.54;57.80
50696;BME280;36665;51.786;21.594;2023-05-01T09:20:49;98391.17;;;16.82;57.69
50696;BME280;36665;51.786;21.594;2023-05-01T09:38:44;98428.44;;;16.91;57.80
50696;BME280;36665;51.786;21.594;2023-05-01T09:47:20;98435.53;;;16.92;57.85
50696;BME280;36665;51.786;21.594;2023-05-01T09:55:59;98468.73;;;16.99;57.66
50696;BME280;36665;51.786;21.594;2023-05-01T10:04:33;98410.92;;;16.86;57.61
50696;BME280;36665;51.786;21.594;2023-05-01T10:13:15;98407.70;;;16.84;57.76
50696;BME280;36665;51.786;21.594;2023-05-01T10:21:39;98510.00;;;17.09;57.80
50696;BME280;36665;51.786;21.594;2023-05-01T10:30:03;98538.97;;;17.16;57.67
50696;BME280;36665;51.786;21.594;2023-05-01T10:38:32;98576.95;;;17.25;57.64
50696;BME280;36665;51.786;21.594;2023-05-01T10:46:57;98550.45;;;17.20;57.50
50696;BME280;36665;51.786;21.594;2023-05-01T10:55:34;98635.55;;;17.40;57.65
50696;BME280;36665;51.786;21.594;2023-05-01T11:04:00;98731.91;;;17.63;57.58
50696;BME280;36665;51.786;21.594;2023-05-01T11:21:08;98764.80;;;17.70;57.51
50696;BME280;36665;51.786;21.594;2023-05-01T11:29:32;98729.38;;;17.62;57.51
50696;BME280;36665;51.786;21.594;2023-05-01T11:37:55;98757.66;;;17.70;57.55
50696;BME280;36665;51.786;21.594;2023-05-01T11:46:29;98742.61;;;17.66;57.42
50696;BME280;36665;51.786;21.594;2023-05-01T11:54:53;98683.60;;;17.51;57.40
50696;BME280;36665;51.786;21.594;2023-05-01T12:03:16;98666.66;;;17.47;57.32
50696;BME280;36665;51.786;21.594;2023-05-01T12:11:41;98701.70;;;17.56;57.37
50696;BME280;36665;51.786;21.594;2023-05-01T12:20:04;98698.92;;;17.55;57.18
50696;BME280;36665;51.786;21.594;2023-05-01T12:28:29;98728.45;;;17.62;57.07
50696;BME280;36665;51.786;21.594;2023-05-01T12:36:52;98723.00;;;17.62;57.11
50696;BME280;36665;51.786;21.594;2023-05-01T12:45:17;98720.24;;;17.61;56.85
50696;BME280;36665;51.786;21.594;2023-05-01T12:53:42;98693.58;;;17.56;57.03
50696;BME280;36665;51.786;21.594;2023-05-01T13:02:16;98801.16;;;17.82;57.06
50696;BME280;36665;51.786;21.594;2023-05-01T13:10:40;98873.52;;;18.00;56.99
50696;BME280;36665;51.786;21.594;2023-05-01T13:19:03;98846.67;;;17.94;56.83
50696;BME280;36665;51.786;21.594;2023-05-01T13:27:28;98866.77;;;17.99;56.82
50696;BME280;36665;51.786;21.594;2023-05-01T13:35:51;98888.23;;;18.04;56.86
50696;BME280;36665;51.786;21.594;2023-05-01T13:44:16;98898.86;;;18.07;56.87
50696;BME280;36665;51.786;21.594;2023-05-01T13:52:42;98920.27;;;18.13;56.74
50696;BME280;36665;51.786;21.594;2023-05-01T14:01:14;98919.06;;;18.12;56.78
50696;BME280;36665;51.786;21.594;2023-05-01T14:09:38;98849.52;;;17.96;56.48
50696;BME280;36665;51.786;21.594;2023-05-01T14:18:04;98755.16;;;17.73;56.49
50696;BME280;36665;51.786;21.594;2023-05-01T14:26:28;98604.23;;;17.36;56.46
50696;BME280;36665;51.786;21.594;2023-05-01T14:34:51;98559.02;;;17.25;56.37
50696;BME280;36665;51.786;21.594;2023-05-01T14:43:17;98566.94;;;17.27;56.35
50696;BME280;36665;51.786;21.594;2023-05-01T14:51:41;98549.06;;;17.24;56.28
50696;BME280;36665;51.786;21.594;2023-05-01T15:00:04;98480.80;;;17.07;56.24
50696;BME280;36665;51.786;21.594;2023-05-01T15:08:28;98421.09;;;16.93;55.99
50696;BME280;36665;51.786;21.594;2023-05-01T15:16:52;98389.52;;;16.86;56.04
50696;BME280;36665;51.786;21.594;2023-05-01T15:25:16;98365.50;;;16.80;55.78
50696;BME280;36665;51.786;21.594;2023-05-01T15:33:39;98322.07;;;16.70;55.79
50696;BME280;36665;51.786;21.594;2023-05-01T15:42:02;98291.30;;;16.63;55.75
50696;BME280;36665;51.786;21.594;2023-05-01T15:50:26;98239.61;;;16.49;55.69
50696;BME280;36665;51.786;21.594;2023-05-01T15:58:49;98184.17;;;16.35;55.73
50696;BME280;36665;51.786;21.594;2023-05-01T16:07:13;98124.40;;;16.21;55.41
50696;BME280;36665;51.786;21.594;2023-05-01T16:15:37;98061.86;;;16.06;55.26
50696;BME280;36665;51.786;21.594;2023-05-01T16:24:01;98026.28;;;15.97;55.32
50696;BME280;36665;51.786;21.594;2023-05-01T16:32:24;97941.13;;;15.76;55.39
50696;BME280;36665;51.786;21.594;2023-05-01T16:40:50;97852.48;;;15.54;55.17
50696;BME280;36665;51.786;21.594;2023-05-01T16:49:16;97771.59;;;15.34;55.28
50696;BME280;36665;51.786;21.594;2023-05-01T16:57:39;97683.21;;;15.12;55.07
50696;BME280;36665;51.786;21.594;2023-05-01T17:06:08;97576.00;;;14.85;54.98
50696;BME280;36665;51.786;21.594;2023-05-01T17:14:31;97442.34;;;14.52;54.76
50696;BME280;36665;51.786;21.594;2023-05-01T17:22:54;97304.33;;;14.17;54.67
50696;BME280;36665;51.786;21.594;2023-05-01T17:31:17;97163.80;;;13.82;54.61
50696;BME280;36665;51.786;21.594;2023-05-01T17:39:44;97015.34;;;13.44;54.39
50696;BME280;36665;51.786;21.594;2023-05-01T17:48:07;96854.91;;;13.03;54.28
50696;BME280;36665;51.786;21.594;2023-05-01T17:56:30;96700.99;;;12.63;54.27
50696;BME280;36665;51.786;21.594;2023-05-01T18:04:53;96562.95;;;12.28;54.20
50696;BME280;36665;51.786;21.594;2023-05-01T18:13:17;96418.90;;;11.92;53.97
50696;BME280;36665;51.786;21.594;2023-05-01T18:21:42;96277.24;;;11.54;53.91
50696;BME280;36665;51.786;21.594;2023-05-01T18:30:06;96149.16;;;11.22;53.80
50696;BME280;36665;51.786;21.594;2023-05-01T18:38:29;96048.40;;;10.95;53.66
50696;BME280;36665;51.786;21.594;2023-05-01T18:46:52;95947.77;;;10.69;53.66
50696;BME280;36665;51.786;21.594;2023-05-01T18:55:18;95858.44;;;10.46;53.65
50696;BME280;36665;51.786;21.594;2023-05-01T19:03:41;95755.10;;;10.19;53.38
50696;BME280;36665;51.786;21.594;2023-05-01T19:12:04;95646.31;;;9.91;53.38
50696;BME280;36665;51.786;21.594;2023-05-01T19:20:28;95551.88;;;9.65;53.38
50696;BME280;36665;51.786;21.594;2023-05-01T19:28:51;95453.84;;;9.40;53.17
50696;BME280;36665;51.786;21.594;2023-05-01T19:37:14;95352.75;;;9.13;53.08
50696;BME280;36665;51.786;21.594;2023-05-01T19:45:37;95272.90;;;8.93;53.14
50696;BME280;36665;51.786;21.594;2023-05-01T19:54:00;95241.63;;;8.85;53.09
50696;BME280;36665;51.786;21.594;2023-05-01T20:02:24;95239.42;;;8.85;52.97
50696;BME280;36665;51.786;21.594;2023-05-01T20:10:49;95258.98;;;8.90;53.07
50696;BME280;36665;51.786;21.594;2023-05-01T20:19:11;95305.77;;;9.03;53.07
50696;BME280;36665;51.786;21.594;2023-05-01T20:27:38;95350.70;;;9.15;52.85
50696;BME280;36665;51.786;21.594;2023-05-01T20:36:04;95378.04;;;9.23;52.99
50696;BME280;36665;51.786;21.594;2023-05-01T20:44:27;95378.88;;;9.23;52.91
50696;BME280;36665;51.786;21.594;2023-05-01T20:52:50;95346.74;;;9.15;52.91
50696;BME280;36665;51.786;21.594;2023-05-01T21:01:14;95293.72;;;9.00;52.83
50696;BME280;36665;51.786;21.594;2023-05-01T21:09:45;95203.05;;;8.77;52.89
50696;BME280;36665;51.786;21.594;2023-05-01T21:18:10;95104.55;;;8.51;52.82
50696;BME280;36665;51.786;21.594;2023-05-01T21:26:36;95002.36;;;8.25;52.80
50696;BME280;36665;51.786;21.594;2023-05-01T21:35:01;94919.45;;;8.02;52.69
50696;BME280;36665;51.786;21.594;2023-05-01T21:43:25;94867.17;;;7.88;52.71
50696;BME280;36665;51.786;21.594;2023-05-01T21:51:48;94842.59;;;7.83;52.49
50696;BME280;36665;51.786;21.594;2023-05-01T22:00:11;94839.84;;;7.81;52.57
50696;BME280;36665;51.786;21.594;2023-05-01T22:08:35;94848.37;;;7.84;52.53
50696;BME280;36665;51.786;21.594;2023-05-01T22:16:59;94863.61;;;7.89;52.43
50696;BME280;36665;51.786;21.594;2023-05-01T22:25:22;94879.77;;;7.93;52.50
50696;BME280;36665;51.786;21.594;2023-05-01T22:33:45;94883.35;;;7.95;52.48
50696;BME280;36665;51.786;21.594;2023-05-01T22:42:08;94881.86;;;7.95;52.60
50696;BME280;36665;51.786;21.594;2023-05-01T22:50:31;94878.77;;;7.94;52.63
50696;BME280;36665;51.786;21.594;2023-05-01T22:58:55;94853.88;;;7.87;52.59
50696;BME280;36665;51.786;21.594;2023-05-01T23:07:18;94823.55;;;7.79;52.46
50696;BME280;36665;51.786;21.594;2023-05-01T23:15:44;94789.16;;;7.70;52.44
50696;BME280;36665;51.786;21.594;2023-05-01T23:24:17;94758.66;;;7.62;52.48
50696;BME280;36665;51.786;21.594;2023-05-01T23:32:40;94738.40;;;7.57;52.41
50696;BME280;36665;51.786;21.594;2023-05-01T23:41:03;94713.58;;;7.51;52.30
50696;BME280;36665;51.786;21.594;2023-05-01T23:49:27;94693.08;;;7.45;52.33
50696;BME280;36665;51.786;21.594;2023-05-01T23:57:50;94675.30;;;7.41;52.30
